sensor_id;sensor_type;location;lat;lon;timestamp;P1;durP1;ratioP1;P2;durP2;ratioP2
52650;SDS011;38537;47.226;39.702;2023-01-09T00:01:01;20.45;;;10.77;;
52650;SDS011;38537;47.226;39.702;2023-01-09T00:03:36;16.08;;;9.80;;
52650;SDS011;38537;47.226;39.702;2023-01-09T00:06:03;21.70;;;10.27;;
52650;SDS011;38537;47.226;39.702;2023-01-09T00:08:31;21.40;;;10.90;;
52650;SDS011;38537;47.226;39.702;2023-01-09T00:10:58;19.33;;;10.82;;
52650;SDS011;38537;47.226;39.702;2023-01-09T00:13:26;17.83;;;10.27;;
52650;SDS011;38537;47.226;39.702;2023-01-09T00:15:53;23.70;;;11.43;;
52650;SDS011;38537;47.226;39.702;2023-01-09T00:18:20;22.65;;;10.52;;
52650;SDS011;38537;47.226;39.702;2023-01-09T00:20:47;21.25;;;10.57;;
52650;SDS011;38537;47.226;39.702;2023-01-09T00:23:15;20.83;;;11.18;;
52650;SDS011;38537;47.226;39.702;2023-01-09T00:25:42;20.05;;;11.07;;
52650;SDS011;38537;47.226;39.702;2023-01-09T00:28:09;19.33;;;10.90;;
52650;SDS011;38537;47.226;39.702;2023-01-09T00:30:36;19.35;;;10.60;;
52650;SDS011;38537;47.226;39.702;2023-01-09T00:33:04;22.20;;;11.32;;
52650;SDS011;38537;47.226;39.702;2023-01-09T00:35:31;18.63;;;10.77;;
52650;SDS011;38537;47.226;39.702;2023-01-09T00:37:59;23.35;;;11.32;;
52650;SDS011;38537;47.226;39.702;2023-01-09T00:40:28;21.15;;;10.68;;
52650;SDS011;38537;47.226;39.702;2023-01-09T00:42:55;18.13;;;10.65;;
52650;SDS011;38537;47.226;39.702;2023-01-09T00:45:24;20.98;;;10.82;;
52650;SDS011;38537;47.226;39.702;2023-01-09T00:48:00;19.45;;;10.77;;
52650;SDS011;38537;47.226;39.702;2023-01-09T00:50:32;20.63;;;10.02;;
52650;SDS011;38537;47.226;39.702;2023-01-09T00:53:03;19.92;;;10.00;;
52650;SDS011;38537;47.226;39.702;2023-01-09T00:55:36;18.80;;;10.30;;
52650;SDS011;38537;47.226;39.702;2023-01-09T00:58:05;19.27;;;9.82;;
52650;SDS011;38537;47.226;39.702;2023-01-09T01:00:33;20.63;;;10.40;;
52650;SDS011;38537;47.226;39.702;2023-01-09T01:03:00;18.65;;;10.82;;
52650;SDS011;38537;47.226;39.702;2023-01-09T01:05:27;21.33;;;10.95;;
52650;SDS011;38537;47.226;39.702;2023-01-09T01:08:14;19.65;;;10.60;;
52650;SDS011;38537;47.226;39.702;2023-01-09T01:10:44;19.88;;;11.38;;
52650;SDS011;38537;47.226;39.702;2023-01-09T01:13:13;20.10;;;10.93;;
52650;SDS011;38537;47.226;39.702;2023-01-09T01:15:41;21.38;;;11.45;;
52650;SDS011;38537;47.226;39.702;2023-01-09T01:18:10;21.23;;;11.00;;
52650;SDS011;38537;47.226;39.702;2023-01-09T01:20:40;21.67;;;10.75;;
52650;SDS011;38537;47.226;39.702;2023-01-09T01:23:08;20.75;;;11.15;;
52650;SDS011;38537;47.226;39.702;2023-01-09T01:25:36;20.10;;;10.57;;
52650;SDS011;38537;47.226;39.702;2023-01-09T01:28:05;17.80;;;10.07;;
52650;SDS011;38537;47.226;39.702;2023-01-09T01:30:40;20.85;;;10.57;;
52650;SDS011;38537;47.226;39.702;2023-01-09T01:33:10;20.30;;;10.60;;
52650;SDS011;38537;47.226;39.702;2023-01-09T01:35:37;17.65;;;9.80;;
52650;SDS011;38537;47.226;39.702;2023-01-09T01:38:04;17.85;;;10.15;;
52650;SDS011;38537;47.226;39.702;2023-01-09T01:40:31;17.25;;;10.27;;
52650;SDS011;38537;47.226;39.702;2023-01-09T01:43:01;17.80;;;9.77;;
52650;SDS011;38537;47.226;39.702;2023-01-09T01:45:28;16.27;;;9.43;;
52650;SDS011;38537;47.226;39.702;2023-01-09T01:48:10;16.67;;;8.93;;
52650;SDS011;38537;47.226;39.702;2023-01-09T01:56:32;18.15;;;8.48;;
52650;SDS011;38537;47.226;39.702;2023-01-09T01:59:20;18.92;;;8.73;;
52650;SDS011;38537;47.226;39.702;2023-01-09T02:01:55;16.60;;;8.85;;
52650;SDS011;38537;47.226;39.702;2023-01-09T02:04:25;18.63;;;9.50;;
52650;SDS011;38537;47.226;39.702;2023-01-09T02:06:56;17.25;;;9.43;;
52650;SDS011;38537;47.226;39.702;2023-01-09T02:09:26;15.43;;;9.15;;
52650;SDS011;38537;47.226;39.702;2023-01-09T02:11:55;16.33;;;9.43;;
52650;SDS011;38537;47.226;39.702;2023-01-09T02:14:25;17.70;;;9.85;;
52650;SDS011;38537;47.226;39.702;2023-01-09T02:20:07;15.75;;;9.23;;
52650;SDS011;38537;47.226;39.702;2023-01-09T02:22:56;18.42;;;10.20;;
52650;SDS011;38537;47.226;39.702;2023-01-09T02:40:24;18.90;;;9.55;;
52650;SDS011;38537;47.226;39.702;2023-01-09T02:42:44;18.42;;;9.45;;
52650;SDS011;38537;47.226;39.702;2023-01-09T02:45:13;14.40;;;8.73;;
52650;SDS011;38537;47.226;39.702;2023-01-09T02:47:41;17.17;;;9.52;;
52650;SDS011;38537;47.226;39.702;2023-01-09T02:50:16;17.30;;;9.38;;
52650;SDS011;38537;47.226;39.702;2023-01-09T02:53:07;16.65;;;9.68;;
52650;SDS011;38537;47.226;39.702;2023-01-09T02:56:22;17.60;;;9.40;;
52650;SDS011;38537;47.226;39.702;2023-01-09T02:59:06;20.25;;;9.57;;
52650;SDS011;38537;47.226;39.702;2023-01-09T03:02:06;17.27;;;9.98;;
52650;SDS011;38537;47.226;39.702;2023-01-09T03:04:56;18.35;;;9.52;;
52650;SDS011;38537;47.226;39.702;2023-01-09T03:07:35;17.38;;;9.60;;
52650;SDS011;38537;47.226;39.702;2023-01-09T03:10:21;18.90;;;9.98;;
52650;SDS011;38537;47.226;39.702;2023-01-09T03:12:53;21.20;;;9.85;;
52650;SDS011;38537;47.226;39.702;2023-01-09T03:15:25;19.35;;;10.80;;
52650;SDS011;38537;47.226;39.702;2023-01-09T03:17:57;19.90;;;11.15;;
52650;SDS011;38537;47.226;39.702;2023-01-09T03:20:26;21.70;;;10.68;;
52650;SDS011;38537;47.226;39.702;2023-01-09T03:22:57;18.35;;;10.13;;
52650;SDS011;38537;47.226;39.702;2023-01-09T03:25:27;21.10;;;10.77;;
52650;SDS011;38537;47.226;39.702;2023-01-09T03:27:57;20.80;;;10.90;;
52650;SDS011;38537;47.226;39.702;2023-01-09T03:30:27;23.25;;;11.52;;
52650;SDS011;38537;47.226;39.702;2023-01-09T03:32:56;17.85;;;10.60;;
52650;SDS011;38537;47.226;39.702;2023-01-09T03:35:24;19.25;;;10.27;;
52650;SDS011;38537;47.226;39.702;2023-01-09T03:37:52;21.40;;;10.55;;
52650;SDS011;38537;47.226;39.702;2023-01-09T03:40:20;19.50;;;10.32;;
52650;SDS011;38537;47.226;39.702;2023-01-09T03:42:47;21.08;;;10.50;;
52650;SDS011;38537;47.226;39.702;2023-01-09T03:45:14;19.05;;;10.45;;
52650;SDS011;38537;47.226;39.702;2023-01-09T03:47:42;21.25;;;11.23;;
52650;SDS011;38537;47.226;39.702;2023-01-09T03:50:09;17.27;;;10.07;;
52650;SDS011;38537;47.226;39.702;2023-01-09T03:52:36;18.55;;;10.85;;
52650;SDS011;38537;47.226;39.702;2023-01-09T03:55:04;20.20;;;10.25;;
52650;SDS011;38537;47.226;39.702;2023-01-09T03:57:31;19.98;;;10.82;;
52650;SDS011;38537;47.226;39.702;2023-01-09T03:59:58;19.83;;;11.02;;
52650;SDS011;38537;47.226;39.702;2023-01-09T04:02:25;22.52;;;11.75;;
52650;SDS011;38537;47.226;39.702;2023-01-09T04:04:53;19.83;;;11.32;;
52650;SDS011;38537;47.226;39.702;2023-01-09T04:07:20;21.90;;;11.18;;
52650;SDS011;38537;47.226;39.702;2023-01-09T04:09:47;21.73;;;11.35;;
52650;SDS011;38537;47.226;39.702;2023-01-09T04:12:14;22.55;;;11.02;;
52650;SDS011;38537;47.226;39.702;2023-01-09T04:14:41;22.23;;;11.80;;
52650;SDS011;38537;47.226;39.702;2023-01-09T04:17:08;21.02;;;11.35;;
52650;SDS011;38537;47.226;39.702;2023-01-09T04:19:36;20.85;;;11.82;;
52650;SDS011;38537;47.226;39.702;2023-01-09T04:22:03;22.50;;;11.93;;
52650;SDS011;38537;47.226;39.702;2023-01-09T04:24:30;21.10;;;12.50;;
52650;SDS011;38537;47.226;39.702;2023-01-09T04:26:58;20.20;;;12.10;;
52650;SDS011;38537;47.226;39.702;2023-01-09T04:29:27;24.05;;;12.43;;
52650;SDS011;38537;47.226;39.702;2023-01-09T04:31:54;21.90;;;11.77;;
52650;SDS011;38537;47.226;39.702;2023-01-09T04:34:21;22.88;;;12.55;;
52650;SDS011;38537;47.226;39.702;2023-01-09T04:36:53;21.75;;;12.13;;
52650;SDS011;38537;47.226;39.702;2023-01-09T04:39:22;20.73;;;12.10;;
52650;SDS011;38537;47.226;39.702;2023-01-09T04:41:49;23.45;;;11.80;;
52650;SDS011;38537;47.226;39.702;2023-01-09T04:44:20;19.70;;;11.13;;
52650;SDS011;38537;47.226;39.702;2023-01-09T04:46:53;20.88;;;11.15;;
52650;SDS011;38537;47.226;39.702;2023-01-09T04:49:22;19.70;;;11.45;;
52650;SDS011;38537;47.226;39.702;2023-01-09T04:51:50;22.70;;;11.90;;
52650;SDS011;38537;47.226;39.702;2023-01-09T04:54:17;21.90;;;12.73;;
52650;SDS011;38537;47.226;39.702;2023-01-09T04:56:45;21.60;;;11.85;;
52650;SDS011;38537;47.226;39.702;2023-01-09T04:59:12;22.92;;;12.93;;
52650;SDS011;38537;47.226;39.702;2023-01-09T05:01:40;21.35;;;11.93;;
52650;SDS011;38537;47.226;39.702;2023-01-09T05:04:07;23.02;;;14.02;;
52650;SDS011;38537;47.226;39.702;2023-01-09T05:06:35;21.48;;;12.82;;
52650;SDS011;38537;47.226;39.702;2023-01-09T05:09:02;22.13;;;13.05;;
52650;SDS011;38537;47.226;39.702;2023-01-09T05:11:29;20.40;;;12.20;;
52650;SDS011;38537;47.226;39.702;2023-01-09T05:13:57;23.85;;;12.93;;
52650;SDS011;38537;47.226;39.702;2023-01-09T05:16:24;22.83;;;13.32;;
52650;SDS011;38537;47.226;39.702;2023-01-09T05:18:51;21.15;;;12.48;;
52650;SDS011;38537;47.226;39.702;2023-01-09T05:21:22;20.77;;;12.60;;
52650;SDS011;38537;47.226;39.702;2023-01-09T05:23:50;22.27;;;13.02;;
52650;SDS011;38537;47.226;39.702;2023-01-09T05:26:22;23.27;;;12.80;;
52650;SDS011;38537;47.226;39.702;2023-01-09T05:28:50;25.70;;;13.50;;
52650;SDS011;38537;47.226;39.702;2023-01-09T05:31:19;24.25;;;13.73;;
52650;SDS011;38537;47.226;39.702;2023-01-09T05:33:46;22.48;;;13.05;;
52650;SDS011;38537;47.226;39.702;2023-01-09T05:36:14;23.35;;;13.38;;
52650;SDS011;38537;47.226;39.702;2023-01-09T05:38:41;25.98;;;13.20;;
52650;SDS011;38537;47.226;39.702;2023-01-09T05:41:08;23.50;;;13.43;;
52650;SDS011;38537;47.226;39.702;2023-01-09T05:43:38;21.42;;;13.18;;
52650;SDS011;38537;47.226;39.702;2023-01-09T05:46:05;24.83;;;13.25;;
52650;SDS011;38537;47.226;39.702;2023-01-09T05:48:33;22.98;;;13.93;;
52650;SDS011;38537;47.226;39.702;2023-01-09T05:51:00;24.17;;;13.60;;
52650;SDS011;38537;47.226;39.702;2023-01-09T05:53:27;25.65;;;13.88;;
52650;SDS011;38537;47.226;39.702;2023-01-09T05:55:54;23.73;;;14.15;;
52650;SDS011;38537;47.226;39.702;2023-01-09T05:58:21;26.83;;;14.90;;
52650;SDS011;38537;47.226;39.702;2023-01-09T06:00:48;24.40;;;14.70;;
52650;SDS011;38537;47.226;39.702;2023-01-09T06:03:18;26.75;;;14.38;;
52650;SDS011;38537;47.226;39.702;2023-01-09T06:05:46;25.23;;;13.55;;
52650;SDS011;38537;47.226;39.702;2023-01-09T06:08:13;22.58;;;13.25;;
52650;SDS011;38537;47.226;39.702;2023-01-09T06:10:40;25.00;;;13.50;;
52650;SDS011;38537;47.226;39.702;2023-01-09T06:13:07;23.63;;;13.52;;
52650;SDS011;38537;47.226;39.702;2023-01-09T06:15:34;24.25;;;13.32;;
52650;SDS011;38537;47.226;39.702;2023-01-09T06:18:02;26.17;;;13.50;;
52650;SDS011;38537;47.226;39.702;2023-01-09T06:20:30;21.20;;;12.80;;
52650;SDS011;38537;47.226;39.702;2023-01-09T06:22:57;20.88;;;11.93;;
52650;SDS011;38537;47.226;39.702;2023-01-09T06:28:39;19.55;;;11.60;;
52650;SDS011;38537;47.226;39.702;2023-01-09T06:31:24;20.45;;;12.07;;
52650;SDS011;38537;47.226;39.702;2023-01-09T06:33:52;20.85;;;12.30;;
52650;SDS011;38537;47.226;39.702;2023-01-09T06:36:28;21.88;;;13.18;;
52650;SDS011;38537;47.226;39.702;2023-01-09T06:38:59;22.05;;;12.80;;
52650;SDS011;38537;47.226;39.702;2023-01-09T06:41:27;21.98;;;12.30;;
52650;SDS011;38537;47.226;39.702;2023-01-09T06:44:00;20.90;;;12.18;;
52650;SDS011;38537;47.226;39.702;2023-01-09T06:46:31;20.85;;;13.00;;
52650;SDS011;38537;47.226;39.702;2023-01-09T06:48:58;21.63;;;12.32;;
52650;SDS011;38537;47.226;39.702;2023-01-09T06:51:26;20.52;;;12.30;;
52650;SDS011;38537;47.226;39.702;2023-01-09T06:53:53;20.13;;;12.13;;
52650;SDS011;38537;47.226;39.702;2023-01-09T06:56:21;20.95;;;11.95;;
52650;SDS011;38537;47.226;39.702;2023-01-09T06:58:48;19.05;;;11.43;;
52650;SDS011;38537;47.226;39.702;2023-01-09T07:01:16;16.73;;;10.07;;
52650;SDS011;38537;47.226;39.702;2023-01-09T07:03:44;17.83;;;10.63;;
52650;SDS011;38537;47.226;39.702;2023-01-09T07:06:12;19.20;;;12.23;;
52650;SDS011;38537;47.226;39.702;2023-01-09T07:08:40;17.95;;;10.02;;
52650;SDS011;38537;47.226;39.702;2023-01-09T07:11:07;15.27;;;9.43;;
52650;SDS011;38537;47.226;39.702;2023-01-09T07:13:35;16.80;;;9.27;;
52650;SDS011;38537;47.226;39.702;2023-01-09T07:16:04;15.25;;;9.40;;
52650;SDS011;38537;47.226;39.702;2023-01-09T07:18:32;15.20;;;8.80;;
52650;SDS011;38537;47.226;39.702;2023-01-09T07:21:00;15.45;;;9.13;;
52650;SDS011;38537;47.226;39.702;2023-01-09T07:23:29;13.85;;;8.18;;
52650;SDS011;38537;47.226;39.702;2023-01-09T07:25:56;16.05;;;8.75;;
52650;SDS011;38537;47.226;39.702;2023-01-09T07:28:24;13.82;;;8.90;;
52650;SDS011;38537;47.226;39.702;2023-01-09T07:30:51;13.50;;;8.27;;
52650;SDS011;38537;47.226;39.702;2023-01-09T07:33:20;13.02;;;7.95;;
52650;SDS011;38537;47.226;39.702;2023-01-09T07:35:49;13.27;;;8.10;;
52650;SDS011;38537;47.226;39.702;2023-01-09T07:38:17;14.98;;;8.25;;
52650;SDS011;38537;47.226;39.702;2023-01-09T07:40:44;13.00;;;7.50;;
52650;SDS011;38537;47.226;39.702;2023-01-09T07:43:12;12.55;;;7.43;;
52650;SDS011;38537;47.226;39.702;2023-01-09T07:45:40;11.93;;;7.40;;
52650;SDS011;38537;47.226;39.702;2023-01-09T07:48:08;15.07;;;8.00;;
52650;SDS011;38537;47.226;39.702;2023-01-09T07:50:36;12.50;;;7.65;;
52650;SDS011;38537;47.226;39.702;2023-01-09T07:53:03;11.63;;;7.88;;
52650;SDS011;38537;47.226;39.702;2023-01-09T07:55:31;14.63;;;8.60;;
52650;SDS011;38537;47.226;39.702;2023-01-09T07:57:59;15.20;;;9.10;;
52650;SDS011;38537;47.226;39.702;2023-01-09T08:00:27;13.48;;;8.80;;
52650;SDS011;38537;47.226;39.702;2023-01-09T08:02:57;17.73;;;8.77;;
52650;SDS011;38537;47.226;39.702;2023-01-09T08:05:24;12.55;;;8.25;;
52650;SDS011;38537;47.226;39.702;2023-01-09T08:07:52;16.15;;;9.00;;
52650;SDS011;38537;47.226;39.702;2023-01-09T08:10:20;13.00;;;8.85;;
52650;SDS011;38537;47.226;39.702;2023-01-09T08:12:48;13.65;;;8.07;;
52650;SDS011;38537;47.226;39.702;2023-01-09T08:15:16;14.13;;;8.85;;
52650;SDS011;38537;47.226;39.702;2023-01-09T08:17:44;12.32;;;7.75;;
52650;SDS011;38537;47.226;39.702;2023-01-09T08:20:13;12.05;;;6.85;;
52650;SDS011;38537;47.226;39.702;2023-01-09T08:22:42;10.20;;;7.05;;
52650;SDS011;38537;47.226;39.702;2023-01-09T08:25:15;11.88;;;6.65;;
52650;SDS011;38537;47.226;39.702;2023-01-09T08:27:44;10.63;;;6.55;;
52650;SDS011;38537;47.226;39.702;2023-01-09T08:30:12;11.15;;;6.00;;
52650;SDS011;38537;47.226;39.702;2023-01-09T08:32:40;9.27;;;5.97;;
52650;SDS011;38537;47.226;39.702;2023-01-09T08:35:07;11.57;;;6.72;;
52650;SDS011;38537;47.226;39.702;2023-01-09T08:37:35;11.00;;;6.65;;
52650;SDS011;38537;47.226;39.702;2023-01-09T08:40:03;11.75;;;7.30;;
52650;SDS011;38537;47.226;39.702;2023-01-09T08:42:31;13.00;;;8.27;;
52650;SDS011;38537;47.226;39.702;2023-01-09T08:45:17;12.52;;;7.50;;
52650;SDS011;38537;47.226;39.702;2023-01-09T08:48:04;11.35;;;7.30;;
52650;SDS011;38537;47.226;39.702;2023-01-09T08:50:31;11.68;;;7.45;;
52650;SDS011;38537;47.226;39.702;2023-01-09T08:52:59;11.07;;;6.93;;
52650;SDS011;38537;47.226;39.702;2023-01-09T08:55:27;10.65;;;6.78;;
52650;SDS011;38537;47.226;39.702;2023-01-09T08:57:54;10.80;;;6.65;;
52650;SDS011;38537;47.226;39.702;2023-01-09T09:00:22;11.70;;;6.97;;
52650;SDS011;38537;47.226;39.702;2023-01-09T09:02:51;11.07;;;7.05;;
52650;SDS011;38537;47.226;39.702;2023-01-09T09:05:23;9.65;;;6.20;;
52650;SDS011;38537;47.226;39.702;2023-01-09T09:07:53;10.93;;;6.25;;
52650;SDS011;38537;47.226;39.702;2023-01-09T09:10:22;10.25;;;6.50;;
52650;SDS011;38537;47.226;39.702;2023-01-09T09:12:51;11.90;;;6.55;;
52650;SDS011;38537;47.226;39.702;2023-01-09T09:15:20;12.18;;;6.97;;
52650;SDS011;38537;47.226;39.702;2023-01-09T09:18:01;10.27;;;6.53;;
52650;SDS011;38537;47.226;39.702;2023-01-09T09:20:31;13.32;;;6.85;;
52650;SDS011;38537;47.226;39.702;2023-01-09T09:23:01;10.07;;;6.50;;
52650;SDS011;38537;47.226;39.702;2023-01-09T09:25:28;13.88;;;6.65;;
52650;SDS011;38537;47.226;39.702;2023-01-09T09:27:56;11.23;;;7.03;;
52650;SDS011;38537;47.226;39.702;2023-01-09T09:30:27;10.15;;;6.75;;
52650;SDS011;38537;47.226;39.702;2023-01-09T09:36:03;10.38;;;6.55;;
52650;SDS011;38537;47.226;39.702;2023-01-09T09:38:31;9.85;;;6.65;;
52650;SDS011;38537;47.226;39.702;2023-01-09T09:41:06;11.95;;;7.68;;
52650;SDS011;38537;47.226;39.702;2023-01-09T09:44:21;12.55;;;6.53;;
52650;SDS011;38537;47.226;39.702;2023-01-09T09:47:35;11.25;;;6.72;;
52650;SDS011;38537;47.226;39.702;2023-01-09T09:55:57;11.80;;;6.93;;
52650;SDS011;38537;47.226;39.702;2023-01-09T10:01:14;10.75;;;7.35;;
52650;SDS011;38537;47.226;39.702;2023-01-09T10:03:52;11.95;;;7.45;;
52650;SDS011;38537;47.226;39.702;2023-01-09T10:06:27;12.13;;;7.20;;
52650;SDS011;38537;47.226;39.702;2023-01-09T10:11:34;13.30;;;8.23;;
52650;SDS011;38537;47.226;39.702;2023-01-09T10:14:09;12.27;;;7.25;;
52650;SDS011;38537;47.226;39.702;2023-01-09T10:16:53;11.80;;;6.90;;
52650;SDS011;38537;47.226;39.702;2023-01-09T10:22:30;12.90;;;7.47;;
52650;SDS011;38537;47.226;39.702;2023-01-09T10:25:17;11.57;;;6.70;;
52650;SDS011;38537;47.226;39.702;2023-01-09T10:30:34;12.27;;;6.90;;
52650;SDS011;38537;47.226;39.702;2023-01-09T10:39:13;12.15;;;7.95;;
52650;SDS011;38537;47.226;39.702;2023-01-09T10:44:29;12.02;;;7.53;;
52650;SDS011;38537;47.226;39.702;2023-01-09T10:47:50;11.70;;;7.88;;
52650;SDS011;38537;47.226;39.702;2023-01-09T10:50:08;13.07;;;7.45;;
52650;SDS011;38537;47.226;39.702;2023-01-09T10:52:44;12.02;;;7.50;;
52650;SDS011;38537;47.226;39.702;2023-01-09T10:58:01;12.48;;;7.22;;
52650;SDS011;38537;47.226;39.702;2023-01-09T11:00:35;12.27;;;7.15;;
52650;SDS011;38537;47.226;39.702;2023-01-09T11:03:02;14.98;;;7.40;;
52650;SDS011;38537;47.226;39.702;2023-01-09T11:05:30;11.57;;;7.32;;
52650;SDS011;38537;47.226;39.702;2023-01-09T11:08:21;13.88;;;7.70;;
52650;SDS011;38537;47.226;39.702;2023-01-09T11:13:20;11.75;;;7.55;;
52650;SDS011;38537;47.226;39.702;2023-01-09T11:18:51;13.27;;;6.82;;
52650;SDS011;38537;47.226;39.702;2023-01-09T11:21:37;11.43;;;7.50;;
52650;SDS011;38537;47.226;39.702;2023-01-09T11:26:48;15.88;;;7.28;;
52650;SDS011;38537;47.226;39.702;2023-01-09T11:29:21;10.43;;;6.05;;
52650;SDS011;38537;47.226;39.702;2023-01-09T11:31:51;11.80;;;6.53;;
52650;SDS011;38537;47.226;39.702;2023-01-09T11:34:21;12.43;;;6.55;;
52650;SDS011;38537;47.226;39.702;2023-01-09T11:36:52;11.40;;;7.05;;
52650;SDS011;38537;47.226;39.702;2023-01-09T11:42:08;12.90;;;6.18;;
52650;SDS011;38537;47.226;39.702;2023-01-09T11:45:14;10.00;;;6.18;;
52650;SDS011;38537;47.226;39.702;2023-01-09T11:47:53;11.70;;;6.28;;
52650;SDS011;38537;47.226;39.702;2023-01-09T11:50:24;11.25;;;6.32;;
52650;SDS011;38537;47.226;39.702;2023-01-09T11:55:39;10.20;;;6.25;;
52650;SDS011;38537;47.226;39.702;2023-01-09T11:58:12;10.90;;;6.40;;
52650;SDS011;38537;47.226;39.702;2023-01-09T12:00:59;10.27;;;6.78;;
52650;SDS011;38537;47.226;39.702;2023-01-09T12:04:00;11.30;;;7.20;;
52650;SDS011;38537;47.226;39.702;2023-01-09T12:31:22;10.77;;;6.85;;
52650;SDS011;38537;47.226;39.702;2023-01-09T12:39:38;10.45;;;6.50;;
52650;SDS011;38537;47.226;39.702;2023-01-09T12:47:56;9.52;;;6.07;;
52650;SDS011;38537;47.226;39.702;2023-01-09T12:53:23;10.75;;;6.05;;
52650;SDS011;38537;47.226;39.702;2023-01-09T12:55:59;9.45;;;6.28;;
52650;SDS011;38537;47.226;39.702;2023-01-09T12:58:35;10.68;;;6.45;;
52650;SDS011;38537;47.226;39.702;2023-01-09T13:01:16;11.55;;;6.07;;
52650;SDS011;38537;47.226;39.702;2023-01-09T13:06:50;8.80;;;6.07;;
52650;SDS011;38537;47.226;39.702;2023-01-09T13:09:25;12.57;;;6.78;;
52650;SDS011;38537;47.226;39.702;2023-01-09T13:12:14;8.25;;;5.47;;
52650;SDS011;38537;47.226;39.702;2023-01-09T13:17:43;10.38;;;5.57;;
52650;SDS011;38537;47.226;39.702;2023-01-09T13:20:20;10.15;;;6.43;;
52650;SDS011;38537;47.226;39.702;2023-01-09T13:22:53;11.60;;;6.50;;
52650;SDS011;38537;47.226;39.702;2023-01-09T13:28:23;8.77;;;5.55;;
52650;SDS011;38537;47.226;39.702;2023-01-09T13:33:32;9.40;;;6.20;;
52650;SDS011;38537;47.226;39.702;2023-01-09T13:36:02;9.48;;;6.13;;
52650;SDS011;38537;47.226;39.702;2023-01-09T13:38:33;9.95;;;6.50;;
52650;SDS011;38537;47.226;39.702;2023-01-09T13:41:11;10.23;;;6.53;;
52650;SDS011;38537;47.226;39.702;2023-01-09T13:44:01;10.63;;;6.45;;
52650;SDS011;38537;47.226;39.702;2023-01-09T13:46:45;12.93;;;7.43;;
52650;SDS011;38537;47.226;39.702;2023-01-09T14:00:46;13.23;;;7.25;;
52650;SDS011;38537;47.226;39.702;2023-01-09T14:08:17;11.52;;;7.53;;
52650;SDS011;38537;47.226;39.702;2023-01-09T14:13:21;11.88;;;7.72;;
52650;SDS011;38537;47.226;39.702;2023-01-09T14:15:51;12.95;;;8.02;;
52650;SDS011;38537;47.226;39.702;2023-01-09T14:18:30;13.50;;;8.27;;
52650;SDS011;38537;47.226;39.702;2023-01-09T14:21:00;12.68;;;8.23;;
52650;SDS011;38537;47.226;39.702;2023-01-09T14:23:39;16.02;;;8.45;;
52650;SDS011;38537;47.226;39.702;2023-01-09T14:37:23;13.93;;;8.30;;
52650;SDS011;38537;47.226;39.702;2023-01-09T14:39:53;14.75;;;8.55;;
52650;SDS011;38537;47.226;39.702;2023-01-09T14:42:23;13.25;;;8.40;;
52650;SDS011;38537;47.226;39.702;2023-01-09T14:48:04;15.00;;;8.50;;
52650;SDS011;38537;47.226;39.702;2023-01-09T14:53:15;14.40;;;8.95;;
52650;SDS011;38537;47.226;39.702;2023-01-09T14:55:55;16.27;;;9.38;;
52650;SDS011;38537;47.226;39.702;2023-01-09T14:58:33;14.40;;;9.02;;
52650;SDS011;38537;47.226;39.702;2023-01-09T15:01:04;15.38;;;9.00;;
52650;SDS011;38537;47.226;39.702;2023-01-09T15:03:49;14.57;;;9.25;;
52650;SDS011;38537;47.226;39.702;2023-01-09T15:06:28;14.02;;;8.38;;
52650;SDS011;38537;47.226;39.702;2023-01-09T15:09:06;12.93;;;8.05;;
52650;SDS011;38537;47.226;39.702;2023-01-09T15:11:36;14.63;;;8.52;;
52650;SDS011;38537;47.226;39.702;2023-01-09T15:14:05;15.57;;;8.55;;
52650;SDS011;38537;47.226;39.702;2023-01-09T15:16:35;14.60;;;9.18;;
52650;SDS011;38537;47.226;39.702;2023-01-09T15:19:03;13.25;;;7.78;;
52650;SDS011;38537;47.226;39.702;2023-01-09T15:21:34;13.40;;;8.63;;
52650;SDS011;38537;47.226;39.702;2023-01-09T15:24:11;13.25;;;8.57;;
52650;SDS011;38537;47.226;39.702;2023-01-09T15:26:38;11.88;;;7.55;;
52650;SDS011;38537;47.226;39.702;2023-01-09T15:29:13;16.27;;;8.57;;
52650;SDS011;38537;47.226;39.702;2023-01-09T15:31:43;14.27;;;8.63;;
52650;SDS011;38537;47.226;39.702;2023-01-09T15:34:14;11.65;;;7.55;;
52650;SDS011;38537;47.226;39.702;2023-01-09T15:36:45;15.07;;;8.45;;
52650;SDS011;38537;47.226;39.702;2023-01-09T15:39:24;13.40;;;8.00;;
52650;SDS011;38537;47.226;39.702;2023-01-09T15:41:57;14.48;;;8.48;;
52650;SDS011;38537;47.226;39.702;2023-01-09T15:44:45;11.60;;;7.80;;
52650;SDS011;38537;47.226;39.702;2023-01-09T15:47:22;15.40;;;7.82;;
52650;SDS011;38537;47.226;39.702;2023-01-09T15:49:53;12.20;;;7.55;;
52650;SDS011;38537;47.226;39.702;2023-01-09T15:52:22;12.02;;;8.10;;
52650;SDS011;38537;47.226;39.702;2023-01-09T15:54:50;13.10;;;8.25;;
52650;SDS011;38537;47.226;39.702;2023-01-09T15:59:51;13.07;;;7.65;;
52650;SDS011;38537;47.226;39.702;2023-01-09T16:02:19;14.10;;;7.80;;
52650;SDS011;38537;47.226;39.702;2023-01-09T16:05:06;14.55;;;7.75;;
52650;SDS011;38537;47.226;39.702;2023-01-09T16:07:46;13.50;;;7.65;;
52650;SDS011;38537;47.226;39.702;2023-01-09T16:10:33;13.85;;;8.18;;
52650;SDS011;38537;47.226;39.702;2023-01-09T16:13:01;10.25;;;7.18;;
52650;SDS011;38537;47.226;39.702;2023-01-09T16:15:30;13.18;;;7.60;;
52650;SDS011;38537;47.226;39.702;2023-01-09T16:18:17;11.55;;;7.82;;
52650;SDS011;38537;47.226;39.702;2023-01-09T16:20:47;13.45;;;8.30;;
52650;SDS011;38537;47.226;39.702;2023-01-09T16:26:29;10.88;;;7.22;;
52650;SDS011;38537;47.226;39.702;2023-01-09T16:28:49;11.63;;;7.40;;
52650;SDS011;38537;47.226;39.702;2023-01-09T16:34:02;16.55;;;8.40;;
52650;SDS011;38537;47.226;39.702;2023-01-09T16:36:33;11.85;;;7.57;;
52650;SDS011;38537;47.226;39.702;2023-01-09T16:39:04;14.18;;;7.80;;
52650;SDS011;38537;47.226;39.702;2023-01-09T16:41:41;13.40;;;7.65;;
52650;SDS011;38537;47.226;39.702;2023-01-09T16:44:28;12.32;;;7.18;;
52650;SDS011;38537;47.226;39.702;2023-01-09T16:46:59;13.45;;;7.35;;
52650;SDS011;38537;47.226;39.702;2023-01-09T16:49:27;13.05;;;7.85;;
52650;SDS011;38537;47.226;39.702;2023-01-09T16:51:54;12.90;;;7.68;;
52650;SDS011;38537;47.226;39.702;2023-01-09T16:54:25;13.85;;;7.63;;
52650;SDS011;38537;47.226;39.702;2023-01-09T16:56:53;12.90;;;7.82;;
52650;SDS011;38537;47.226;39.702;2023-01-09T16:59:30;13.65;;;8.00;;
52650;SDS011;38537;47.226;39.702;2023-01-09T17:02:08;13.63;;;8.38;;
52650;SDS011;38537;47.226;39.702;2023-01-09T17:04:46;12.70;;;7.65;;
52650;SDS011;38537;47.226;39.702;2023-01-09T17:07:16;13.57;;;7.85;;
52650;SDS011;38537;47.226;39.702;2023-01-09T17:09:52;12.95;;;7.63;;
52650;SDS011;38537;47.226;39.702;2023-01-09T17:12:22;12.25;;;7.57;;
52650;SDS011;38537;47.226;39.702;2023-01-09T17:14:53;14.35;;;7.95;;
52650;SDS011;38537;47.226;39.702;2023-01-09T17:17:21;12.05;;;7.80;;
52650;SDS011;38537;47.226;39.702;2023-01-09T17:19:49;14.30;;;7.53;;
52650;SDS011;38537;47.226;39.702;2023-01-09T17:22:22;11.75;;;7.40;;
52650;SDS011;38537;47.226;39.702;2023-01-09T17:24:51;12.57;;;7.30;;
52650;SDS011;38537;47.226;39.702;2023-01-09T17:27:38;11.73;;;7.25;;
52650;SDS011;38537;47.226;39.702;2023-01-09T17:30:23;14.93;;;8.10;;